CDT,Max TemperatureF,Mean TemperatureF,Min TemperatureF,Max Dew PointF,MeanDew PointF,Min DewpointF,Max Humidity, Mean Humidity, Min Humidity, Max Sea Level PressureIn, Mean Sea Level PressureIn, Min Sea Level PressureIn, Max VisibilityMiles, Mean VisibilityMiles, Min VisibilityMiles, Max Wind SpeedMPH, Mean Wind SpeedMPH, Max Gust SpeedMPH,PrecipitationIn, CloudCover, Events, WindDirDegrees
2011-10-1,88,70,51,34,30,27,41,27,12,30.23,30.14,30.08,10,10,10,10,3,21,0.00,0,,63
2011-10-2,91,72,52,59,42,31,54,38,21,30.19,30.12,30.04,10,10,10,13,5,18,0.00,0,,122
2011-10-3,88,73,58,52,43,38,55,37,18,30.22,30.11,30.05,10,10,10,16,8,26,0.00,0,,164
2011-10-4,87,71,54,50,39,27,61,37,13,30.23,30.09,30.00,10,10,10,21,10,25,0.00,0,,163
2011-10-5,85,76,67,62,55,39,73,55,37,30.08,29.97,29.86,10,10,10,24,12,32,0.01,1,,156
2011-10-6,91,80,68,61,58,54,73,53,32,29.98,29.86,29.74,10,10,10,28,14,35,0.00,2,,157
2011-10-7,91,82,73,63,61,56,68,50,32,29.96,29.85,29.78,10,10,10,26,16,36,0.00,2,,158
2011-10-8,80,70,60,64,61,57,93,76,58,30.00,29.91,29.81,10,6,0,35,15,39,2.56,7,Fog-Rain-Thunderstorm,47
2011-10-9,68,65,61,61,60,59,97,87,76,30.08,29.98,29.87,10,9,2,21,8,24,0.27,7,Rain,61
2011-10-10,70,64,58,61,58,55,93,80,66,30.13,30.05,29.96,10,7,0,12,4,14,0.00,5,Fog,70
2011-10-11,81,68,54,64,58,51,93,72,51,29.99,29.89,29.76,10,9,0,16,6,23,0.00,2,Fog,180
2011-10-12,84,74,64,64,60,53,87,61,34,29.93,29.79,29.71,10,10,10,16,9,26,0.00,0,,273
2011-10-13,81,69,56,60,51,41,97,62,26,30.07,29.98,29.92,10,9,4,9,5,13,0.00,0,,84
2011-10-14,88,71,54,49,45,41,72,47,21,29.97,29.91,29.85,10,10,10,24,10,31,0.00,0,,183
2011-10-15,88,73,57,52,47,43,65,43,21,30.11,30.00,29.89,10,10,10,14,5,18,0.00,0,,162
2011-10-16,87,72,56,61,54,49,81,55,28,30.12,30.00,29.91,10,10,10,17,8,24,0.00,1,,192
2011-10-17,97,80,62,61,51,33,78,45,11,29.91,29.80,29.61,10,10,7,39,14,48,0.00,2,,216
2011-10-18,70,60,49,43,35,25,55,37,18,30.20,30.11,29.93,10,10,10,30,14,38,0.00,0,,346
2011-10-19,74,59,43,37,31,26,65,41,17,30.25,30.16,30.07,10,10,10,20,7,23,0.00,0,,268
2011-10-20,84,62,40,37,33,30,73,44,14,30.06,29.99,29.88,10,10,10,23,8,32,0.00,0,,181
2011-10-21,88,67,46,52,45,37,71,48,25,30.12,30.02,29.95,10,10,10,15,6,22,0.00,0,,152
2011-10-22,85,73,61,61,57,51,84,61,37,30.05,29.95,29.86,10,10,10,18,9,22,0.00,2,,194
2011-10-23,86,71,56,59,53,48,86,58,29,30.12,30.01,29.92,10,10,10,14,6,20,0.00,0,,2
2011-10-24,88,69,50,60,50,43,86,54,21,30.19,30.10,30.03,10,10,10,15,5,18,0.00,0,,159
2011-10-25,88,77,65,57,54,50,73,51,28,30.04,29.95,29.86,10,10,10,26,13,32,0.00,0,,187
2011-10-26,87,74,61,56,52,48,63,49,34,29.88,29.82,29.74,10,10,10,20,11,25,0.00,0,,159
2011-10-27,61,53,44,48,43,39,86,71,56,30.22,30.06,29.81,10,8,2,28,15,32,0.07,7,Rain,7
2011-10-28,60,49,38,39,36,33,83,60,36,30.35,30.29,30.22,10,10,10,15,7,18,0.00,4,,348
2011-10-29,69,50,31,36,31,26,89,56,22,30.34,30.21,30.03,10,10,10,15,7,20,0.00,0,,207
2011-10-30,78,63,47,41,36,32,59,42,25,30.19,30.07,29.99,10,10,10,15,6,18,0.00,0,,190
2011-10-31,80,60,40,48,42,35,79,53,26,30.22,30.13,30.04,10,10,10,15,5,18,0.00,0,,204